Stations météo

réclame
Mon MeteoGroup
Arcen aws, Pays-Bas (6391): Température de l'air & dewpoint: 15.10.2017 21:00:00 - 21.10.2017 21:00:00 (CEST)Arcen aws, Pays-Bas (6391): Température de l'air 5cm: 15.10.2017 21:00:00 - 21.10.2017 21:00:00 (CEST)Arcen aws, Pays-Bas (6391): Vitesse du vent & gusts: 15.10.2017 21:00:00 - 21.10.2017 21:00:00 (CEST)Arcen aws, Pays-Bas (6391): Direction du vent: 15.10.2017 21:00:00 - 21.10.2017 21:00:00 (CEST)Arcen aws, Pays-Bas (6391): Quantités de précipitations: 15.10.2017 21:00:00 - 21.10.2017 21:00:00 (CEST)
Date & Time tt [°C] td [°C] tt 5cm [°C] ff [km/h] ff [knt] fx [km/h] fx [knt] dd rr [mm]
21.10.2017 21:00:00 13,3 9,7 12,4 13 7 - - SSW -
21.10.2017 20:00:00 12,9 9,7 12,1 11 6 14 8 S 0,0
21.10.2017 19:00:00 13,7 8,4 12,6 7 4 25 14 SSW 0,0
21.10.2017 18:00:00 15,4 8,0 14,5 14 8 29 16 SW 0,0
21.10.2017 17:00:00 17,2 9,2 16,3 18 10 36 19 SW 0,0
21.10.2017 16:00:00 17,2 10,4 16,6 22 12 40 21 SW 0,0
21.10.2017 15:00:00 17,7 11,3 17,6 18 10 40 21 SW 0,0
21.10.2017 14:00:00 17,0 13,6 17,2 18 10 32 18 SSW 0,0
21.10.2017 13:00:00 15,7 14,0 15,6 14 8 25 14 SSW 0,0
21.10.2017 12:00:00 13,8 13,2 13,7 11 6 22 12 S 0,0
21.10.2017 11:00:00 12,7 12,2 12,8 14 8 22 12 S 0,2
21.10.2017 10:00:00 11,4 10,8 11,4 14 8 29 16 SSE 1,3
21.10.2017 09:00:00 11,6 9,1 11,5 14 8 25 14 SSE 0,2
21.10.2017 08:00:00 11,4 8,3 11,1 11 6 - - SSE 0,0
21.10.2017 07:00:00 11,1 7,9 10,5 11 6 22 12 SSE 0,0
21.10.2017 06:00:00 11,7 8,1 11,2 11 6 22 12 SSE 0,0
21.10.2017 05:00:00 11,9 8,2 11,5 11 6 - - SSE 0,0
21.10.2017 04:00:00 11,3 8,0 10,9 14 8 18 10 S 0,0
21.10.2017 03:00:00 11,0 7,9 10,7 11 6 18 10 S 0,0
21.10.2017 02:00:00 10,5 7,5 9,7 7 4 - - S 0,0
21.10.2017 01:00:00 10,9 7,4 10,1 11 6 18 10 S 0,0
21.10.2017 00:00:00 11,4 7,1 10,4 4 2 25 14 SW 0,0
20.10.2017 23:00:00 12,3 7,6 11,4 14 8 - - SSW 0,0
20.10.2017 22:00:00 12,7 7,8 11,9 14 8 36 19 SW 0,0
20.10.2017 21:00:00 13,5 8,4 13,1 22 12 43 23 SW 0,0
20.10.2017 20:00:00 13,7 8,7 13,4 18 10 36 19 SSW 0,0
20.10.2017 19:00:00 13,8 8,8 13,3 18 10 36 19 SW 0,0
20.10.2017 18:00:00 13,8 9,4 13,5 22 12 40 21 SW 0,0
20.10.2017 17:00:00 14,0 9,6 13,7 22 12 47 25 SW 0,1
20.10.2017 16:00:00 13,4 10,0 13,3 14 8 50 27 SSW 0,6
20.10.2017 15:00:00 14,3 9,5 14,2 29 16 50 27 SW 0,0
20.10.2017 14:00:00 15,8 9,2 15,6 25 14 50 27 SW 0,0
20.10.2017 13:00:00 15,3 9,4 15,0 22 12 54 29 SW 0,0
20.10.2017 12:00:00 15,6 11,1 15,3 25 14 43 23 SSW 0,0
20.10.2017 11:00:00 14,4 11,5 14,3 22 12 40 21 SW 0,0
20.10.2017 10:00:00 14,3 12,9 14,2 18 10 32 18 SSW 1,9
20.10.2017 09:00:00 15,4 12,5 14,9 18 10 32 18 SSE 0,2
20.10.2017 08:00:00 15,1 12,7 14,5 18 10 25 14 SSE 0,0
20.10.2017 07:00:00 14,8 13,2 14,4 11 6 25 14 SSE 0,3
20.10.2017 06:00:00 15,0 12,8 14,6 11 6 22 12 SSE 0,3
20.10.2017 05:00:00 15,1 12,3 14,6 14 8 22 12 SSE 0,2
20.10.2017 04:00:00 15,3 12,2 14,7 11 6 22 12 SSE 0,0
20.10.2017 03:00:00 15,3 12,8 14,9 14 8 32 18 SSE 0,6
20.10.2017 02:00:00 17,2 11,6 16,3 18 10 25 14 SSE 0,0
20.10.2017 01:00:00 16,6 12,3 16,0 11 6 18 10 SSE 0,0
20.10.2017 00:00:00 16,6 12,6 15,7 11 6 18 10 SSE 0,0
19.10.2017 23:00:00 15,0 13,1 13,4 7 4 11 6 SSE 0,0
19.10.2017 22:00:00 16,6 13,3 15,8 7 4 14 8 SSE 0,0
19.10.2017 21:00:00 17,6 13,5 16,6 7 4 18 10 SSE 0,0
19.10.2017 20:00:00 16,3 13,7 15,1 4 2 14 8 SSE 0,0
19.10.2017 19:00:00 17,8 13,5 16,9 7 4 14 8 SE 0,0
19.10.2017 18:00:00 18,9 13,9 18,1 11 6 18 10 SE 0,0
19.10.2017 17:00:00 19,4 14,1 18,8 11 6 18 10 SE 0,0
19.10.2017 16:00:00 19,8 13,1 19,2 11 6 22 12 SE 0,0
19.10.2017 15:00:00 19,6 12,7 19,2 11 6 18 10 SE 0,0
19.10.2017 14:00:00 19,2 12,6 18,7 11 6 18 10 ESE 0,0
19.10.2017 13:00:00 18,5 12,6 18,0 11 6 18 10 ESE 0,0
19.10.2017 12:00:00 17,3 12,4 17,7 7 4 22 12 ESE 0,0
19.10.2017 11:00:00 15,5 11,7 15,4 11 6 18 10 SSE 0,0
19.10.2017 10:00:00 13,5 11,2 13,2 7 4 14 8 SE 0,0
19.10.2017 09:00:00 12,3 10,9 11,7 7 4 14 8 SE 0,0
19.10.2017 08:00:00 11,5 10,5 10,7 7 4 11 6 SE 0,0
19.10.2017 07:00:00 11,5 10,6 10,8 4 2 7 4 ESE 0,0
19.10.2017 06:00:00 11,5 10,7 10,6 4 2 7 4 ESE 0,0
19.10.2017 05:00:00 11,7 11,1 10,9 4 2 7 4 SSE 0,0
19.10.2017 04:00:00 12,2 11,3 10,9 4 2 7 4 ESE 0,0
19.10.2017 03:00:00 12,2 12,1 11,2 4 2 7 4 SSE 0,0
19.10.2017 02:00:00 12,0 12,0 10,7 4 2 7 4 S 0,0
19.10.2017 01:00:00 12,1 12,0 10,4 4 2 7 4 S 0,0
19.10.2017 00:00:00 12,1 12,0 10,6 4 2 7 4 SSE 0,0
18.10.2017 23:00:00 11,2 11,0 9,6 0 0 4 2 N 0,0
18.10.2017 22:00:00 11,3 11,2 9,9 4 2 4 2 E 0,0
18.10.2017 21:00:00 11,7 11,2 10,2 0 0 4 2 N 0,0
18.10.2017 20:00:00 12,5 12,0 10,9 0 0 4 2 N 0,0
18.10.2017 19:00:00 13,9 13,2 12,3 4 2 4 2 E 0,0
18.10.2017 18:00:00 16,6 14,2 14,8 0 0 4 2 N 0,0
18.10.2017 17:00:00 20,2 13,1 17,4 0 0 7 4 N 0,0
18.10.2017 16:00:00 19,6 12,2 18,4 4 2 7 4 SW 0,0
18.10.2017 15:00:00 19,1 13,0 18,2 4 2 14 8 SE 0,0
18.10.2017 14:00:00 18,0 12,1 16,6 4 2 7 4 S 0,0
18.10.2017 13:00:00 16,6 12,6 16,4 4 2 11 6 ESE 0,0
18.10.2017 12:00:00 14,7 12,4 15,8 7 4 11 6 SSE 0,0
18.10.2017 11:00:00 12,9 12,2 13,2 7 4 14 8 SSE 0,0
18.10.2017 10:00:00 12,5 12,5 12,8 7 4 14 8 ESE 0,0
18.10.2017 09:00:00 12,2 12,2 12,4 11 6 14 8 E 0,0
18.10.2017 08:00:00 12,0 12,0 12,0 7 4 14 8 ENE 0,0
18.10.2017 07:00:00 11,5 11,2 10,4 7 4 14 8 NE 0,0
18.10.2017 06:00:00 11,6 11,2 11,1 7 4 14 8 NE 0,0
18.10.2017 05:00:00 12,0 11,6 11,3 7 4 14 8 NNE 0,0
18.10.2017 04:00:00 12,6 11,8 12,2 7 4 18 10 NNE 0,0
18.10.2017 03:00:00 11,7 11,3 11,4 7 4 14 8 N 0,0
18.10.2017 02:00:00 10,9 10,4 9,6 4 2 7 4 NE 0,0
18.10.2017 01:00:00 12,2 11,0 10,1 4 2 7 4 ESE 0,0
18.10.2017 00:00:00 10,3 10,2 9,0 0 0 7 4 N 0,0
17.10.2017 23:00:00 10,7 10,6 9,1 0 0 7 4 N 0,0
17.10.2017 22:00:00 11,2 10,7 9,8 4 2 7 4 N 0,0
17.10.2017 21:00:00 11,9 11,6 11,0 4 2 4 2 NNE 0,0
17.10.2017 20:00:00 12,2 11,7 10,8 4 2 4 2 N 0,0
17.10.2017 19:00:00 13,2 12,3 12,0 4 2 4 2 ENE 0,0
17.10.2017 18:00:00 14,9 12,7 13,9 0 0 7 4 N 0,0
17.10.2017 17:00:00 16,7 12,3 16,5 4 2 7 4 W 0,0
17.10.2017 16:00:00 17,4 11,5 17,3 4 2 11 6 W 0,0
17.10.2017 15:00:00 17,6 12,5 17,8 4 2 14 8 W 0,0
17.10.2017 14:00:00 17,5 13,7 17,4 7 4 14 8 SW 0,0
17.10.2017 13:00:00 17,0 13,7 17,1 7 4 14 8 WSW 0,0
17.10.2017 12:00:00 16,5 12,7 16,4 7 4 14 8 WSW 0,0
17.10.2017 11:00:00 15,8 13,1 15,1 7 4 11 6 SW 0,0
17.10.2017 10:00:00 13,9 13,1 13,2 4 2 7 4 S 0,0
17.10.2017 09:00:00 13,2 12,6 12,1 7 4 7 4 S 0,0
17.10.2017 08:00:00 13,3 13,0 12,6 4 2 7 4 S 0,0
17.10.2017 07:00:00 12,6 12,3 10,7 4 2 4 2 S 0,0
17.10.2017 06:00:00 12,3 12,1 11,1 4 2 7 4 SSW 0,0
17.10.2017 05:00:00 12,7 12,4 10,5 4 2 7 4 WSW 0,0
17.10.2017 04:00:00 13,3 12,2 11,4 7 4 11 6 SW 0,0
17.10.2017 03:00:00 13,5 12,4 11,7 4 2 7 4 S 0,0
17.10.2017 02:00:00 14,7 12,1 13,4 7 4 11 6 SSE 0,0
17.10.2017 01:00:00 15,3 12,4 14,1 7 4 11 6 SSE 0,0
17.10.2017 00:00:00 15,3 12,8 13,2 7 4 11 6 S 0,0
16.10.2017 23:00:00 15,5 13,9 13,1 4 2 7 4 SSE 0,0
16.10.2017 22:00:00 17,6 14,7 16,4 7 4 14 8 SSE 0,0
16.10.2017 21:00:00 17,3 15,2 15,6 4 2 11 6 S 0,0
16.10.2017 20:00:00 19,5 15,9 18,2 7 4 14 8 SSE 0,0
16.10.2017 19:00:00 20,9 16,1 19,6 11 6 18 10 SE 0,0
16.10.2017 18:00:00 21,5 16,9 20,3 7 4 14 8 SSE 0,0
16.10.2017 17:00:00 23,6 16,2 22,4 11 6 22 12 SSE 0,0
16.10.2017 16:00:00 24,5 16,6 23,1 11 6 22 12 SSE 0,0
16.10.2017 15:00:00 24,6 16,1 23,9 14 8 22 12 SSE 0,0
16.10.2017 14:00:00 24,5 16,5 22,9 11 6 25 14 SSW 0,0
16.10.2017 13:00:00 23,3 15,7 22,9 14 8 25 14 SSW 0,0
16.10.2017 12:00:00 21,6 15,5 21,7 11 6 22 12 S 0,0
16.10.2017 11:00:00 19,2 14,9 19,2 7 4 14 8 SSE 0,0
16.10.2017 10:00:00 16,5 13,7 15,8 7 4 14 8 SSE 0,0
16.10.2017 09:00:00 14,9 12,8 13,6 4 2 14 8 SSE 0,0
16.10.2017 08:00:00 14,4 12,2 13,9 11 6 14 8 SSE 0,0
16.10.2017 07:00:00 14,6 12,2 13,9 11 6 18 10 SSE 0,0
16.10.2017 06:00:00 13,7 11,9 12,9 7 4 11 6 SSE 0,0
16.10.2017 05:00:00 13,4 11,8 12,5 7 4 11 6 SSE 0,0
16.10.2017 04:00:00 13,0 11,8 11,7 7 4 11 6 SSE 0,0
16.10.2017 03:00:00 13,1 11,5 11,7 7 4 11 6 SSE 0,0
16.10.2017 02:00:00 12,5 11,4 10,7 7 4 11 6 SSE 0,0
16.10.2017 01:00:00 13,1 11,7 11,7 7 4 11 6 SSE 0,0
16.10.2017 00:00:00 13,5 11,8 11,2 7 4 11 6 SSE 0,0
15.10.2017 23:00:00 13,0 11,9 10,8 7 4 7 4 SSE 0,0
15.10.2017 22:00:00 14,0 12,6 11,5 7 4 11 6 SSE 0,0
15.10.2017 21:00:00 14,5 14,0 12,3 4 2 7 4 SSE 0,0

tt = Température de l'air
td = dewpoint
tt 5cm = Température de l'air 5cm
ff = Vitesse du vent
fx = gusts
dd = Direction du vent
rr = Quantités de précipitations

stations d'obs. à proximité